DAAD

Bou Saada Airport

Algeria
METAR DAAD 201800Z 02010KT CAVOK 31/11 Q1015
Observed Flight Rules
Aug-20 @ 18:00 UTC (24 hours ago) Visual Flight Rules
Wind Visibility Clouds
20° at 10 knots 10,000+ meters
  • Clear skies
Temperatures Readings
Current 31°C / 88°F
Dewpoint 11°C / 52°F
Humidity 29%
Altimeter 29.97" Hg
Pressure 1015 hPa
Elevation 461
METAR DAAD 201800Z 02010KT CAVOK 31/11 Q1015
Observed Flight Rules
Aug-20 @ 18:00 UTC
(24 hours ago)
VFR
Wind Visibility
20° at 10 knots 10,000+ meters
Clouds
  • Clear skies
Temperature Dewpoint
31°C / 88°F 11°C / 52°F
Humidity Altimeter Pressure
29% 29.97" Hg 1015 hPa